createdAt,value
2022-09-06T00:00:30.133Z,99.99
2022-09-06T00:01:30.122Z,99.99
2022-09-06T00:02:30.139Z,99.99
2022-09-06T00:03:30.103Z,99.99
2022-09-06T00:04:30.168Z,99.99
2022-09-06T00:05:30.072Z,99.99
2022-09-06T00:06:30.077Z,99.99
2022-09-06T00:07:30.065Z,99.99
2022-09-06T00:08:30.051Z,99.99
2022-09-06T00:09:30.037Z,99.99
2022-09-06T00:10:30.062Z,99.99
2022-09-06T00:11:30.016Z,99.88
2022-09-06T00:12:30.005Z,99.78
2022-09-06T00:13:29.997Z,99.63
2022-09-06T00:14:29.984Z,99.43
2022-09-06T00:15:30.015Z,99.22
2022-09-06T00:16:30.673Z,99.11
2022-09-06T00:17:29.955Z,99.01
2022-09-06T00:18:29.947Z,98.91
2022-09-06T00:19:29.937Z,99.99
2022-09-06T00:20:29.927Z,99.99
2022-09-06T00:21:29.918Z,99.99
2022-09-06T00:22:29.944Z,99.99
2022-09-06T00:23:29.896Z,99.99
2022-09-06T00:24:29.889Z,99.99
2022-09-06T00:25:29.871Z,99.99
2022-09-06T00:26:29.866Z,99.99
2022-09-06T00:27:29.848Z,99.99
2022-09-06T00:28:29.872Z,99.99
2022-09-06T00:29:29.828Z,99.99
2022-09-06T00:30:29.821Z,99.99
2022-09-06T00:31:29.845Z,99.99
2022-09-06T00:32:29.802Z,99.99
2022-09-06T00:33:29.793Z,99.99
2022-09-06T00:34:29.808Z,99.99
2022-09-06T00:35:29.775Z,99.99
2022-09-06T00:36:29.758Z,99.99
2022-09-06T00:37:29.747Z,99.99
2022-09-06T00:38:29.741Z,99.99
2022-09-06T00:39:29.774Z,99.99
2022-09-06T00:40:29.741Z,99.99
2022-09-06T00:41:29.711Z,99.99
2022-09-06T00:42:29.700Z,99.99
2022-09-06T00:43:29.681Z,99.99
2022-09-06T00:44:29.681Z,99.99
2022-09-06T00:45:29.671Z,99.99
2022-09-06T00:46:29.728Z,99.99
2022-09-06T00:47:29.642Z,99.99
2022-09-06T00:48:29.634Z,99.99
2022-09-06T00:49:29.623Z,99.99
2022-09-06T00:50:29.616Z,99.99
2022-09-06T00:51:29.602Z,99.99
2022-09-06T00:52:29.633Z,99.99
2022-09-06T00:53:29.584Z,99.99
2022-09-06T00:54:29.575Z,99.99
2022-09-06T00:55:29.563Z,99.99
2022-09-06T00:56:29.563Z,99.99
2022-09-06T00:57:29.543Z,99.99
2022-09-06T00:58:29.567Z,99.99
2022-09-06T00:59:29.523Z,99.99
2022-09-06T01:00:29.517Z,99.99
2022-09-06T01:01:29.601Z,99.99
2022-09-06T01:02:29.628Z,99.99
2022-09-06T01:03:29.485Z,99.99
2022-09-06T01:04:29.505Z,99.99
2022-09-06T01:05:29.465Z,99.99
2022-09-06T01:06:29.455Z,99.99
2022-09-06T01:07:29.438Z,99.99
2022-09-06T01:08:29.435Z,99.99
2022-09-06T01:09:29.419Z,99.99
2022-09-06T01:10:29.436Z,99.99
2022-09-06T01:11:29.396Z,99.99
2022-09-06T01:12:29.396Z,99.99
2022-09-06T01:13:29.379Z,99.99
2022-09-06T01:14:29.374Z,99.99
2022-09-06T01:15:29.403Z,99.99
2022-09-06T01:16:29.388Z,99.99
2022-09-06T01:17:29.339Z,99.99
2022-09-06T01:18:29.346Z,99.99
2022-09-06T01:19:29.319Z,99.99
2022-09-06T01:20:29.319Z,99.99
2022-09-06T01:21:29.299Z,99.99
2022-09-06T01:22:29.329Z,99.99
2022-09-06T01:23:29.279Z,99.99
2022-09-06T01:24:29.272Z,99.99
2022-09-06T01:25:29.257Z,99.99
2022-09-06T01:26:29.251Z,99.99
2022-09-06T01:27:29.240Z,99.99
2022-09-06T01:28:29.271Z,99.99
2022-09-06T01:29:29.220Z,99.99
2022-09-06T01:30:29.213Z,99.99
2022-09-06T01:31:29.243Z,99.99
2022-09-06T01:32:29.189Z,99.99
2022-09-06T01:33:29.180Z,99.99
2022-09-06T01:34:29.202Z,99.99
2022-09-06T01:35:29.161Z,99.99
2022-09-06T01:36:29.151Z,99.99
2022-09-06T01:37:29.139Z,99.99
2022-09-06T01:38:29.134Z,99.99
2022-09-06T01:39:29.161Z,99.99
2022-09-06T01:40:29.145Z,99.99
2022-09-06T01:41:29.108Z,99.99
2022-09-06T01:42:29.092Z,99.99
2022-09-06T01:43:29.084Z,99.99
2022-09-06T01:44:29.073Z,99.99
2022-09-06T01:45:29.062Z,99.99
2022-09-06T01:46:29.126Z,99.99
2022-09-06T01:47:29.049Z,99.99
2022-09-06T01:48:29.033Z,99.99
2022-09-06T01:49:29.018Z,99.99
2022-09-06T01:50:29.015Z,99.99
2022-09-06T01:51:29.023Z,99.99
2022-09-06T01:52:29.028Z,99.99
2022-09-06T01:53:29.018Z,99.99
2022-09-06T01:54:28.985Z,99.99
2022-09-06T01:55:28.955Z,99.99
2022-09-06T01:56:28.956Z,99.99
2022-09-06T01:57:28.945Z,99.99
2022-09-06T01:58:28.982Z,99.99
2022-09-06T01:59:28.924Z,99.99
2022-09-06T02:00:28.918Z,99.99
2022-09-06T02:01:28.946Z,99.99
2022-09-06T02:02:28.933Z,99.99
2022-09-06T02:03:28.881Z,99.99
2022-09-06T02:04:28.928Z,99.99
2022-09-06T02:05:28.861Z,99.99
2022-09-06T02:06:28.855Z,99.99
2022-09-06T02:07:28.844Z,99.99
2022-09-06T02:08:28.936Z,99.99
2022-09-06T02:09:28.820Z,99.99
2022-09-06T02:10:28.838Z,99.99
2022-09-06T02:11:28.797Z,99.99
2022-09-06T02:12:28.804Z,99.99
2022-09-06T02:13:28.779Z,99.99
2022-09-06T02:14:28.769Z,99.99
2022-09-06T02:15:28.757Z,99.99
2022-09-06T02:16:28.826Z,99.99
2022-09-06T02:17:28.740Z,99.99
2022-09-06T02:18:28.895Z,99.99
2022-09-06T02:19:28.711Z,99.99
2022-09-06T02:20:28.701Z,99.99
2022-09-06T02:21:28.700Z,99.99
2022-09-06T02:22:28.725Z,99.99
2022-09-06T02:23:28.672Z,99.99
2022-09-06T02:24:28.665Z,99.99
2022-09-06T02:25:28.659Z,99.99
2022-09-06T02:26:28.644Z,99.99
2022-09-06T02:27:30.733Z,99.99
2022-09-06T02:28:28.792Z,99.99
2022-09-06T02:29:28.614Z,99.99
2022-09-06T02:30:28.652Z,99.99
2022-09-06T02:31:28.593Z,99.99
2022-09-06T02:32:28.580Z,99.99
2022-09-06T02:33:28.585Z,99.99
2022-09-06T02:34:28.605Z,99.99
2022-09-06T02:35:28.554Z,99.99
2022-09-06T02:36:28.544Z,99.99
2022-09-06T02:37:28.539Z,99.99
2022-09-06T02:38:28.645Z,99.99
2022-09-06T02:39:28.563Z,99.99
2022-09-06T02:40:28.531Z,99.99
2022-09-06T02:41:28.502Z,99.99
2022-09-06T02:42:28.484Z,99.99
2022-09-06T02:43:28.477Z,99.99
2022-09-06T02:44:28.456Z,99.99
2022-09-06T02:45:28.458Z,99.99
2022-09-06T02:46:28.518Z,99.99
2022-09-06T02:47:28.437Z,99.99
2022-09-06T02:48:28.461Z,99.99
2022-09-06T02:49:28.416Z,99.99
2022-09-06T02:50:28.396Z,99.99
2022-09-06T02:51:28.395Z,99.99
2022-09-06T02:52:28.406Z,99.99
2022-09-06T02:53:28.369Z,99.99
2022-09-06T02:54:28.354Z,99.99
2022-09-06T02:55:28.348Z,99.99
2022-09-06T02:56:28.335Z,99.99
2022-09-06T02:57:28.329Z,99.99
2022-09-06T02:58:28.506Z,99.99
2022-09-06T02:59:28.298Z,99.99
2022-09-06T03:00:28.298Z,99.99
2022-09-06T03:01:28.341Z,99.99
2022-09-06T03:02:28.334Z,99.99
2022-09-06T03:03:28.268Z,99.99
2022-09-06T03:04:28.299Z,99.99
2022-09-06T03:05:28.248Z,99.99
2022-09-06T03:06:28.239Z,99.99
2022-09-06T03:07:28.227Z,99.99
2022-09-06T03:08:28.339Z,99.99
2022-09-06T03:09:28.201Z,99.99
2022-09-06T03:10:28.222Z,99.99
2022-09-06T03:11:28.188Z,99.99
2022-09-06T03:12:28.178Z,99.99
2022-09-06T03:13:28.173Z,99.99
2022-09-06T03:14:28.152Z,99.99
2022-09-06T03:15:28.141Z,99.99
2022-09-06T03:16:28.206Z,99.99
2022-09-06T03:17:28.129Z,99.99
2022-09-06T03:18:28.236Z,99.99
2022-09-06T03:19:28.102Z,99.99
2022-09-06T03:20:28.090Z,99.99
2022-09-06T03:21:28.082Z,99.99
2022-09-06T03:22:28.100Z,99.99
2022-09-06T03:23:28.063Z,99.99
2022-09-06T03:24:28.050Z,99.99
2022-09-06T03:25:28.047Z,99.99
2022-09-06T03:26:28.031Z,99.99
2022-09-06T03:27:28.024Z,99.99
2022-09-06T03:28:28.202Z,99.99
2022-09-06T03:29:28.004Z,99.99
2022-09-06T03:30:28.005Z,99.99
2022-09-06T03:31:27.982Z,99.99
2022-09-06T03:32:27.975Z,99.99
2022-09-06T03:33:27.966Z,99.99
2022-09-06T03:34:27.975Z,99.99
2022-09-06T03:35:27.934Z,99.99
2022-09-06T03:36:27.925Z,99.99
2022-09-06T03:37:27.917Z,99.99
2022-09-06T03:38:28.043Z,99.99
2022-09-06T03:39:27.925Z,99.99
2022-09-06T03:40:27.916Z,99.99
2022-09-06T03:41:27.877Z,99.99
2022-09-06T03:42:27.863Z,99.99
2022-09-06T03:43:27.857Z,99.99
2022-09-06T03:44:27.845Z,99.99
2022-09-06T03:45:27.836Z,99.99
2022-09-06T03:46:27.854Z,99.99
2022-09-06T03:47:27.776Z,99.99
2022-09-06T03:48:27.862Z,99.99
2022-09-06T03:49:27.745Z,99.99
2022-09-06T03:50:27.726Z,99.99
2022-09-06T03:51:27.777Z,99.99
2022-09-06T03:52:27.738Z,99.99
2022-09-06T03:53:27.705Z,99.99
2022-09-06T03:54:27.695Z,99.99
2022-09-06T03:55:27.679Z,99.99
2022-09-06T03:56:27.667Z,99.99
2022-09-06T03:57:27.659Z,99.99
2022-09-06T03:58:27.714Z,99.99
2022-09-06T03:59:27.641Z,99.99
2022-09-06T04:00:27.619Z,99.99
2022-09-06T04:01:27.671Z,99.99
2022-09-06T04:02:27.618Z,99.99
2022-09-06T04:03:27.597Z,99.99
2022-09-06T04:04:27.651Z,99.99
2022-09-06T04:05:27.583Z,99.99
2022-09-06T04:06:27.560Z,99.99
2022-09-06T04:07:27.559Z,99.99
2022-09-06T04:08:27.650Z,99.99
2022-09-06T04:09:27.540Z,99.99
2022-09-06T04:10:27.562Z,99.99
2022-09-06T04:11:27.511Z,99.99
2022-09-06T04:12:27.509Z,99.99
2022-09-06T04:13:27.500Z,99.99
2022-09-06T04:14:27.481Z,99.99
2022-09-06T04:15:27.471Z,99.99
2022-09-06T04:16:27.549Z,99.99
2022-09-06T04:17:27.452Z,99.99
2022-09-06T04:18:27.524Z,99.99
2022-09-06T04:19:27.433Z,99.99
2022-09-06T04:20:27.426Z,99.99
2022-09-06T04:21:27.422Z,99.99
2022-09-06T04:22:27.423Z,99.99
2022-09-06T04:23:27.396Z,99.99
2022-09-06T04:24:27.380Z,99.99
2022-09-06T04:25:27.371Z,99.99
2022-09-06T04:26:27.362Z,99.99
2022-09-06T04:27:27.355Z,99.99
2022-09-06T04:28:27.426Z,99.99
2022-09-06T04:29:27.340Z,99.99
2022-09-06T04:30:27.325Z,99.99
2022-09-06T04:31:27.330Z,99.99
2022-09-06T04:32:27.304Z,99.99
2022-09-06T04:33:27.299Z,99.99
2022-09-06T04:34:27.304Z,99.99
2022-09-06T04:35:27.274Z,99.99
2022-09-06T04:36:27.263Z,99.99
2022-09-06T04:37:27.257Z,99.99
2022-09-06T04:38:27.403Z,99.99
2022-09-06T04:39:27.250Z,99.99
2022-09-06T04:40:27.254Z,99.99
2022-09-06T04:41:27.206Z,99.99
2022-09-06T04:42:27.201Z,99.99
2022-09-06T04:43:27.191Z,99.99
2022-09-06T04:44:27.178Z,99.99
2022-09-06T04:45:27.230Z,99.99
2022-09-06T04:46:27.179Z,99.99
2022-09-06T04:47:27.148Z,99.99
2022-09-06T04:48:27.200Z,99.99
2022-09-06T04:49:27.129Z,99.99
2022-09-06T04:50:27.115Z,99.99
2022-09-06T04:51:27.106Z,99.99
2022-09-06T04:52:30.223Z,99.99
2022-09-06T04:53:27.088Z,99.99
2022-09-06T04:54:27.076Z,99.99
2022-09-06T04:55:27.060Z,99.99
2022-09-06T04:56:27.051Z,99.99
2022-09-06T04:57:27.051Z,99.99
2022-09-06T04:58:27.215Z,99.99
2022-09-06T04:59:27.020Z,99.99
2022-09-06T05:00:27.011Z,99.99
2022-09-06T05:01:27.056Z,99.99
2022-09-06T05:02:27.097Z,99.99
2022-09-06T05:03:26.982Z,99.99
2022-09-06T05:04:27.010Z,99.99
2022-09-06T05:05:26.971Z,99.99
2022-09-06T05:06:26.945Z,99.99
2022-09-06T05:07:26.941Z,99.99
2022-09-06T05:08:26.945Z,99.99
2022-09-06T05:09:26.922Z,99.99
2022-09-06T05:10:27.392Z,99.99
2022-09-06T05:11:26.901Z,99.99
2022-09-06T05:12:26.893Z,99.99
2022-09-06T05:13:26.883Z,99.99
2022-09-06T05:14:26.871Z,99.99
2022-09-06T05:15:26.864Z,99.99
2022-09-06T05:16:26.953Z,99.99
2022-09-06T05:17:26.843Z,99.99
2022-09-06T05:18:26.976Z,99.99
2022-09-06T05:19:26.827Z,99.99
2022-09-06T05:20:26.814Z,99.99
2022-09-06T05:21:26.804Z,99.99
2022-09-06T05:22:26.815Z,99.99
2022-09-06T05:23:26.782Z,99.99
2022-09-06T05:24:26.773Z,99.99
2022-09-06T05:25:26.765Z,99.99
2022-09-06T05:26:26.753Z,99.99
2022-09-06T05:27:26.746Z,99.99
2022-09-06T05:28:26.841Z,99.99
2022-09-06T05:29:30.498Z,99.99
2022-09-06T05:30:26.706Z,99.99
2022-09-06T05:31:26.743Z,99.99
2022-09-06T05:32:26.687Z,99.99
2022-09-06T05:33:26.687Z,99.99
2022-09-06T05:34:26.699Z,99.99
2022-09-06T05:35:26.660Z,99.99
2022-09-06T05:36:26.649Z,99.99
2022-09-06T05:37:26.655Z,99.99
2022-09-06T05:38:29.623Z,99.99
2022-09-06T05:39:26.661Z,99.99
2022-09-06T05:40:26.638Z,99.99
2022-09-06T05:41:26.607Z,99.99
2022-09-06T05:42:26.590Z,99.99
2022-09-06T05:43:26.578Z,99.99
2022-09-06T05:44:26.578Z,99.99
2022-09-06T05:45:26.596Z,99.99
2022-09-06T05:46:26.589Z,99.99
2022-09-06T05:47:26.548Z,99.99
2022-09-06T05:48:26.540Z,99.99
2022-09-06T05:49:26.521Z,99.99
2022-09-06T05:50:26.513Z,99.99
2022-09-06T05:51:26.533Z,99.99
2022-09-06T05:52:26.526Z,99.99
2022-09-06T05:53:26.480Z,99.99
2022-09-06T05:54:26.470Z,99.99
2022-09-06T05:55:26.462Z,99.99
2022-09-06T05:56:26.451Z,99.99
2022-09-06T05:57:26.442Z,99.99
2022-09-06T05:58:26.525Z,99.99
2022-09-06T05:59:26.422Z,99.99
2022-09-06T06:00:26.410Z,99.99
2022-09-06T06:01:26.488Z,99.99
2022-09-06T06:02:26.420Z,99.99
2022-09-06T06:03:26.383Z,99.99
2022-09-06T06:04:26.394Z,99.99
2022-09-06T06:05:26.365Z,99.99
2022-09-06T06:06:26.343Z,99.99
2022-09-06T06:07:26.341Z,99.99
2022-09-06T06:08:26.367Z,99.99
2022-09-06T06:09:26.321Z,99.99
2022-09-06T06:10:26.333Z,99.99
2022-09-06T06:11:26.303Z,99.99
2022-09-06T06:12:26.285Z,99.99
2022-09-06T06:13:26.275Z,99.99
2022-09-06T06:14:26.267Z,99.99
2022-09-06T06:15:26.265Z,99.99
2022-09-06T06:16:26.340Z,99.99
2022-09-06T06:17:26.236Z,99.99
2022-09-06T06:18:26.303Z,99.99
2022-09-06T06:19:26.216Z,99.99
2022-09-06T06:20:26.209Z,99.99
2022-09-06T06:21:26.198Z,99.99
2022-09-06T06:22:26.215Z,99.99
2022-09-06T06:23:26.175Z,99.99
2022-09-06T06:24:26.169Z,99.99
2022-09-06T06:25:26.161Z,99.99
2022-09-06T06:26:26.139Z,99.99
2022-09-06T06:27:26.130Z,99.99
2022-09-06T06:28:26.196Z,99.99
2022-09-06T06:29:26.117Z,99.99
2022-09-06T06:30:26.099Z,99.99
2022-09-06T06:31:26.147Z,99.99
2022-09-06T06:32:26.549Z,99.99
2022-09-06T06:33:26.073Z,99.99
2022-09-06T06:34:26.090Z,99.99
2022-09-06T06:35:26.047Z,99.99
2022-09-06T06:36:26.041Z,99.99
2022-09-06T06:37:26.027Z,99.99
2022-09-06T06:38:26.021Z,99.99
2022-09-06T06:39:26.050Z,99.99
2022-09-06T06:40:26.032Z,99.99
2022-09-06T06:41:25.987Z,99.99
2022-09-06T06:42:25.981Z,99.99
2022-09-06T06:43:25.969Z,99.99
2022-09-06T06:44:25.959Z,99.99
2022-09-06T06:45:26.030Z,99.99
2022-09-06T06:46:25.972Z,99.99
2022-09-06T06:47:25.933Z,99.99
2022-09-06T06:48:25.972Z,99.99
2022-09-06T06:49:25.911Z,99.99
2022-09-06T06:50:25.956Z,99.99
2022-09-06T06:51:25.892Z,99.99
2022-09-06T06:52:25.915Z,99.99
2022-09-06T06:53:25.864Z,99.99
2022-09-06T06:54:25.854Z,99.99
2022-09-06T06:55:25.846Z,99.99
2022-09-06T06:56:25.836Z,99.99
2022-09-06T06:57:25.824Z,99.99
2022-09-06T06:58:25.951Z,99.99
2022-09-06T06:59:25.814Z,99.99
2022-09-06T07:00:28.230Z,99.99
2022-09-06T07:01:25.918Z,99.99
2022-09-06T07:02:25.850Z,99.99
2022-09-06T07:03:25.772Z,99.93
2022-09-06T07:04:25.785Z,99.78
2022-09-06T07:08:25.757Z,99.58
2022-09-06T07:09:26.080Z,99.18
2022-09-06T07:10:33.131Z,99.33
2022-09-06T07:11:26.682Z,98.61
2022-09-06T07:12:25.672Z,98.36
2022-09-06T07:13:25.691Z,98.16
2022-09-06T07:14:25.651Z,98.06
2022-09-06T07:15:25.637Z,98.43
2022-09-06T07:16:25.753Z,98.11
2022-09-06T07:17:25.624Z,97.87
2022-09-06T07:18:25.620Z,97.41
2022-09-06T07:20:26.726Z,97.57
2022-09-06T07:21:40.822Z,97.06
2022-09-06T07:22:26.600Z,96.61
2022-09-06T07:24:26.550Z,95.85
2022-09-06T07:25:25.541Z,95.04
2022-09-06T07:26:25.532Z,94.69
2022-09-06T07:28:26.534Z,94.74
2022-09-06T07:29:25.504Z,94.34
2022-09-06T07:30:25.494Z,94.29
2022-09-06T07:32:26.465Z,93.64
2022-09-06T07:33:25.539Z,92.38
2022-09-06T07:34:25.474Z,92.64
2022-09-06T07:35:25.426Z,91.83
2022-09-06T07:36:25.426Z,90.71
2022-09-06T07:37:25.407Z,91.73
2022-09-06T07:38:25.399Z,91.48
2022-09-06T07:39:25.474Z,89.96
2022-09-06T07:40:25.407Z,90.73
2022-09-06T07:41:25.369Z,90.58
2022-09-06T07:42:25.369Z,90.58
2022-09-06T07:43:25.350Z,89.23
2022-09-06T07:44:25.339Z,89.43
2022-09-06T07:45:25.340Z,88.98
2022-09-06T07:46:25.393Z,88.57
2022-09-06T07:48:26.372Z,86.71
2022-09-06T07:49:25.304Z,87.38
2022-09-06T07:51:26.292Z,86.22
2022-09-06T07:53:30.878Z,85.88
2022-09-06T07:54:30.531Z,83.86
2022-09-06T07:55:26.235Z,84.73
2022-09-06T07:56:25.214Z,86.15
2022-09-06T07:57:25.234Z,85.10
2022-09-06T07:58:25.193Z,83.95
2022-09-06T07:59:25.185Z,83.14
2022-09-06T08:00:25.178Z,82.70
2022-09-06T08:01:25.166Z,82.90
2022-09-06T08:02:25.211Z,81.65
2022-09-06T08:03:25.174Z,81.95
2022-09-06T08:04:25.137Z,80.80
2022-09-06T08:06:26.115Z,80.46
2022-09-06T08:07:40.707Z,78.15
2022-09-06T08:09:26.081Z,80.02
2022-09-06T08:10:25.075Z,79.92
2022-09-06T08:11:25.050Z,78.67
2022-09-06T08:12:25.049Z,76.97
2022-09-06T08:13:25.042Z,77.94
2022-09-06T08:14:25.059Z,75.92
2022-09-06T08:15:25.017Z,76.83
2022-09-06T08:16:25.104Z,75.38
2022-09-06T08:17:24.991Z,76.73
2022-09-06T08:18:25.000Z,79.24
2022-09-06T08:19:24.980Z,78.60
2022-09-06T08:20:25.011Z,77.09
2022-09-06T08:21:24.981Z,75.79
2022-09-06T08:22:24.953Z,76.59
2022-09-06T08:23:24.937Z,76.25
2022-09-06T08:24:24.931Z,75.65
2022-09-06T08:25:24.915Z,75.15
2022-09-06T08:26:24.934Z,74.41
2022-09-06T08:27:24.891Z,75.01
2022-09-06T08:28:28.580Z,75.18
2022-09-06T08:29:24.884Z,72.87
2022-09-06T08:30:24.868Z,73.74
2022-09-06T08:31:24.923Z,72.63
2022-09-06T08:32:24.893Z,71.16
2022-09-06T08:33:24.836Z,72.63
2022-09-06T08:34:24.831Z,71.93
2022-09-06T08:35:24.805Z,71.70
2022-09-06T08:36:24.798Z,73.81
2022-09-06T08:37:25.257Z,71.60
2022-09-06T08:38:24.820Z,74.71
2022-09-06T08:39:24.838Z,74.81
2022-09-06T08:40:24.760Z,71.26
2022-09-06T08:41:24.774Z,72.37
2022-09-06T08:42:24.742Z,73.33
2022-09-06T08:43:24.729Z,70.12
2022-09-06T08:45:25.710Z,70.93
2022-09-06T08:46:24.747Z,70.83
2022-09-06T08:47:24.684Z,68.69
2022-09-06T08:48:24.688Z,72.80
2022-09-06T08:49:24.682Z,66.25
2022-09-06T08:50:24.685Z,68.62
2022-09-06T08:51:24.645Z,71.73
2022-09-06T08:52:24.648Z,69.19
2022-09-06T08:53:24.625Z,67.39
2022-09-06T08:54:24.623Z,72.50
2022-09-06T08:55:24.613Z,67.69
2022-09-06T08:56:24.624Z,66.69
2022-09-06T08:57:24.586Z,69.19
2022-09-06T08:58:24.634Z,68.19
2022-09-06T08:59:24.576Z,67.76
2022-09-06T09:00:24.700Z,66.05
2022-09-06T09:01:24.540Z,69.76
2022-09-06T09:02:24.622Z,66.86
2022-09-06T09:03:24.529Z,67.82
2022-09-06T09:04:24.518Z,66.82
2022-09-06T09:05:24.501Z,66.93
2022-09-06T09:06:24.504Z,65.83
2022-09-06T09:07:24.473Z,63.92
2022-09-06T09:08:24.499Z,64.62
2022-09-06T09:09:24.469Z,64.95
2022-09-06T09:10:24.452Z,67.65
2022-09-06T09:11:24.434Z,67.55
2022-09-06T09:12:24.434Z,67.82
2022-09-06T09:13:24.416Z,66.39
2022-09-06T09:14:24.434Z,65.39
2022-09-06T09:15:24.396Z,64.95
2022-09-06T09:16:24.428Z,61.91
2022-09-06T09:17:24.384Z,63.60
2022-09-06T09:18:24.370Z,61.66
2022-09-06T09:19:24.367Z,64.20
2022-09-06T09:20:24.377Z,65.00
2022-09-06T09:21:28.237Z,66.67
2022-09-06T09:22:25.327Z,66.85
2022-09-06T09:23:24.325Z,67.45
2022-09-06T09:24:24.310Z,66.82
2022-09-06T09:25:24.296Z,65.61
2022-09-06T09:26:24.331Z,65.61
2022-09-06T09:27:24.276Z,65.61
2022-09-06T09:28:24.330Z,66.21
2022-09-06T09:29:28.205Z,65.71
2022-09-06T09:31:25.292Z,65.41
2022-09-06T09:32:24.231Z,66.08
2022-09-06T09:33:24.253Z,65.48
2022-09-06T09:34:24.211Z,62.67
2022-09-06T09:35:24.191Z,64.07
2022-09-06T09:36:24.192Z,65.08
2022-09-06T09:38:25.168Z,64.78
2022-09-06T09:39:24.188Z,64.78
2022-09-06T09:40:24.152Z,64.68
2022-09-06T09:41:24.135Z,64.18
2022-09-06T09:42:24.126Z,63.98
2022-09-06T09:43:24.138Z,63.70
2022-09-06T09:44:24.108Z,62.43
2022-09-06T09:45:24.089Z,64.70
2022-09-06T09:46:24.127Z,63.19
2022-09-06T09:47:24.075Z,63.70
2022-09-06T09:48:24.112Z,62.92
2022-09-06T09:49:24.086Z,64.73
2022-09-06T09:50:24.053Z,64.73
2022-09-06T09:51:26.975Z,63.76
2022-09-06T09:52:24.028Z,65.16
2022-09-06T09:53:24.014Z,65.33
2022-09-06T09:54:24.001Z,65.23
2022-09-06T09:55:24.022Z,64.40
2022-09-06T09:56:23.984Z,65.27
2022-09-06T09:57:23.972Z,64.47
2022-09-06T09:58:24.001Z,63.67
2022-09-06T09:59:23.961Z,64.94
2022-09-06T10:00:23.989Z,64.21
2022-09-06T10:01:23.964Z,64.01
2022-09-06T10:02:23.923Z,64.31
2022-09-06T10:03:23.985Z,64.07
2022-09-06T10:05:24.888Z,61.17
2022-09-06T10:07:24.890Z,62.16
2022-09-06T10:08:23.921Z,63.59
2022-09-06T10:09:23.857Z,63.87
2022-09-06T10:10:23.838Z,64.87
2022-09-06T10:11:23.836Z,63.17
2022-09-06T10:12:23.819Z,60.78
2022-09-06T10:13:23.849Z,63.49
2022-09-06T10:14:23.807Z,63.79
2022-09-06T10:15:23.792Z,62.96
2022-09-06T10:16:23.828Z,63.43
2022-09-06T10:17:23.773Z,63.20
2022-09-06T10:18:23.813Z,60.36
2022-09-06T10:19:23.780Z,61.87
2022-09-06T10:20:23.744Z,60.94
2022-09-06T10:21:23.724Z,61.67
2022-09-06T10:22:23.725Z,61.90
2022-09-06T10:25:23.687Z,61.55
2022-09-06T10:26:23.686Z,61.66
2022-09-06T10:27:23.663Z,62.33
2022-09-06T10:28:23.776Z,64.11
2022-09-06T10:29:23.654Z,62.00
2022-09-06T10:30:23.673Z,59.72
2022-09-06T10:31:23.704Z,62.66
2022-09-06T10:32:23.617Z,61.18
2022-09-06T10:33:23.605Z,61.25
2022-09-06T10:34:23.597Z,61.11
2022-09-06T10:35:23.593Z,61.38
2022-09-06T10:36:23.598Z,60.41
2022-09-06T10:37:23.569Z,62.86
2022-09-06T10:38:23.702Z,62.33
2022-09-06T10:39:23.599Z,62.00
2022-09-06T10:40:23.540Z,62.20
2022-09-06T10:41:23.531Z,60.32
2022-09-06T10:42:23.552Z,59.62
2022-09-06T10:43:23.501Z,58.69
2022-09-06T10:44:23.501Z,61.40
2022-09-06T10:45:23.491Z,59.69
2022-09-06T10:46:23.520Z,60.69
2022-09-06T10:47:23.465Z,63.47
2022-09-06T10:48:23.492Z,61.57
2022-09-06T10:49:23.451Z,62.44
2022-09-06T10:50:23.424Z,62.31
2022-09-06T10:51:23.433Z,58.68
2022-09-06T10:52:23.420Z,59.62
2022-09-06T10:53:23.416Z,59.72
2022-09-06T10:54:23.432Z,57.39
2022-09-06T10:55:23.383Z,57.37
2022-09-06T10:56:23.367Z,56.84
2022-09-06T10:58:24.369Z,56.91
2022-09-06T10:59:39.030Z,56.41
2022-09-06T11:00:24.367Z,57.04
2022-09-06T11:01:23.357Z,57.17
2022-09-06T11:02:23.552Z,57.93
2022-09-06T11:04:24.293Z,57.21
2022-09-06T11:05:38.777Z,56.68
2022-09-06T11:06:26.750Z,56.56
2022-09-06T11:07:23.253Z,55.56
2022-09-06T11:09:24.254Z,57.21
2022-09-06T11:10:23.223Z,55.62
2022-09-06T11:11:23.267Z,56.34
2022-09-06T11:12:23.334Z,54.05
2022-09-06T11:13:23.224Z,56.60
2022-09-06T11:14:23.191Z,57.28
2022-09-06T11:15:23.176Z,57.45
2022-09-06T11:16:23.200Z,56.27
2022-09-06T11:17:23.156Z,58.30
2022-09-06T11:18:23.238Z,59.58
2022-09-06T11:19:23.148Z,60.05
2022-09-06T11:20:23.120Z,58.02
2022-09-06T11:21:23.108Z,55.19
2022-09-06T11:22:23.189Z,53.30
2022-09-06T11:23:23.207Z,57.52
2022-09-06T11:24:23.109Z,54.74
2022-09-06T11:25:23.070Z,53.17
2022-09-06T11:26:23.056Z,57.07
2022-09-06T11:27:23.053Z,60.18
2022-09-06T11:28:23.051Z,56.27
2022-09-06T11:29:23.054Z,54.17
2022-09-06T11:30:23.040Z,55.10
2022-09-06T11:32:23.992Z,57.85
2022-09-06T11:33:23.144Z,57.39
2022-09-06T11:34:22.993Z,55.40
2022-09-06T11:35:22.975Z,53.59
2022-09-06T11:36:23.005Z,55.15
2022-09-06T11:37:22.947Z,56.42
2022-09-06T11:38:22.938Z,57.39
2022-09-06T11:41:22.909Z,52.97
2022-09-06T11:42:22.927Z,53.77
2022-09-06T11:43:22.911Z,53.29
2022-09-06T11:44:22.908Z,50.27
2022-09-06T11:45:22.869Z,54.49
2022-09-06T11:46:22.889Z,57.07
2022-09-06T11:47:22.849Z,57.59
2022-09-06T11:48:22.860Z,58.22
2022-09-06T11:49:22.842Z,57.92
2022-09-06T11:50:22.832Z,57.29
2022-09-06T11:51:22.810Z,54.34
2022-09-06T11:52:22.802Z,55.21
2022-09-06T11:53:22.822Z,55.11
2022-09-06T11:54:22.813Z,54.82
2022-09-06T11:55:23.041Z,59.85
2022-09-06T11:56:22.764Z,57.82
2022-09-06T11:57:22.744Z,56.92
2022-09-06T11:58:22.752Z,56.45
2022-09-06T11:59:22.745Z,55.65
2022-09-06T12:00:22.745Z,55.42
2022-09-06T12:01:22.726Z,56.05
2022-09-06T12:02:22.780Z,57.90
2022-09-06T12:04:23.687Z,60.61
2022-09-06T12:05:22.677Z,59.58
2022-09-06T12:06:22.689Z,59.42
2022-09-06T12:07:22.659Z,56.16
2022-09-06T12:08:22.730Z,56.59
2022-09-06T12:09:22.651Z,57.89
2022-09-06T12:10:22.618Z,52.59
2022-09-06T12:11:22.610Z,57.48
2022-09-06T12:12:22.641Z,58.34
2022-09-06T12:13:22.592Z,61.13
2022-09-06T12:14:22.582Z,57.26
2022-09-06T12:15:22.571Z,58.09
2022-09-06T12:16:22.594Z,56.51
2022-09-06T12:17:22.544Z,58.01
2022-09-06T12:18:22.652Z,58.16
2022-09-06T12:19:22.543Z,59.13
2022-09-06T12:20:22.517Z,58.63
2022-09-06T12:21:22.505Z,58.13
2022-09-06T12:22:22.493Z,58.76
2022-09-06T12:23:22.495Z,61.10
2022-09-06T12:24:22.515Z,59.92
2022-09-06T12:25:22.466Z,60.88
2022-09-06T12:26:22.466Z,62.15
2022-09-06T12:27:22.448Z,60.16
2022-09-06T12:28:22.435Z,61.77
2022-09-06T12:29:22.439Z,62.01
2022-09-06T12:30:22.438Z,63.95
2022-09-06T12:31:22.425Z,64.45
2022-09-06T12:32:22.390Z,67.07
2022-09-06T12:33:22.413Z,63.24
2022-09-06T12:34:22.369Z,65.80
2022-09-06T12:36:23.392Z,64.40
2022-09-06T12:37:22.349Z,64.34
2022-09-06T12:38:22.359Z,62.80
2022-09-06T12:39:22.331Z,60.47
2022-09-06T12:40:22.312Z,59.74
2022-09-06T12:41:22.302Z,58.94
2022-09-06T12:42:22.313Z,57.46
2022-09-06T12:43:22.281Z,58.72
2022-09-06T12:44:22.276Z,58.77
2022-09-06T12:45:27.044Z,59.50
2022-09-06T12:46:23.259Z,60.13
2022-09-06T12:47:22.239Z,60.27
2022-09-06T12:48:22.255Z,60.49
2022-09-06T12:49:22.236Z,62.84
2022-09-06T12:50:22.208Z,62.84
2022-09-06T12:51:22.208Z,64.55
2022-09-06T12:52:22.189Z,64.35
2022-09-06T12:53:23.371Z,65.46
2022-09-06T12:54:22.207Z,65.56
2022-09-06T12:55:22.174Z,65.56
2022-09-06T12:56:22.165Z,65.59
2022-09-06T12:57:22.160Z,65.79
2022-09-06T12:58:22.266Z,67.00
2022-09-06T12:59:22.163Z,66.80
2022-09-06T13:00:22.135Z,66.77
2022-09-06T13:01:22.217Z,65.33
2022-09-06T13:02:22.282Z,66.94
2022-09-06T13:03:22.072Z,65.96
2022-09-06T13:04:22.064Z,67.50
2022-09-06T13:05:22.053Z,67.20
2022-09-06T13:06:26.576Z,64.81
2022-09-06T13:07:23.024Z,66.46
2022-09-06T13:08:22.027Z,65.75
2022-09-06T13:09:22.025Z,66.96
2022-09-06T13:10:22.006Z,68.30
2022-09-06T13:11:21.992Z,68.91
2022-09-06T13:12:22.005Z,69.31
2022-09-06T13:13:21.975Z,69.31
2022-09-06T13:14:21.966Z,68.71
2022-09-06T13:15:21.948Z,68.61
2022-09-06T13:16:22.034Z,68.61
2022-09-06T13:17:21.936Z,67.40
2022-09-06T13:18:22.025Z,67.40
2022-09-06T13:19:21.927Z,67.83